Portada
METAR-TAF:

METAR-TAF

Aeroports :

Bangalore, Índia

latitud: 12-57-00N, longitud: 077-40-06E, altitud: 888 m

Observació

L'informe es va fer fa 34 minuts, a les 08:00 UTC
Vent 10 kt del Est/Sud-Est
Temperatura 28°C
Humitat 45%
Pressió 1018 hPa
Visibilitat: 8000 m

METAR: VOBG 220800Z 11010KT 8000 NSC 28/15 Q1018 NOSIG

Hora: 14:04 (08:34 UTC)

Pronòstic

L'informe es va fer fa 3 hores i 34 minuts, a les 05:00 UTC
Pronòstic vàlid del 22 a les 06 UTC al 22 a les 15 UTC
Vent 10 kt del Est/Sud-Est
Visibilitat: 6000 m
Escasses núvols a una alçada de 1500 ft

TAF: VOBG 220500Z 2206/2215 11010KT 6000 FEW015

Observacions i pronòstics meteorològics de més de 4000 aeroports (METAR i TAF).

Les estacions disponibles són els punts grocs i vermells al mapa.

Posi el ratolí al punt desitjat per veure el nom de l'estació.

Feu clic per veure les observacions i els pronòstics meteorològics.

Per canviar el mapa: feu clic els botons verds amb una creu de color negre per apropar; al botó verd amb un guió per allunyar la imatge; o en les fletxes verdes per a mapes adjacents.


METAR-TAF: